createdAt,value
2018-12-03T00:00:10.138Z,47.68
2018-12-03T00:06:05.171Z,49.77
2018-12-03T00:12:00.180Z,45.73
2018-12-03T00:17:55.172Z,41.74
2018-12-03T00:23:50.191Z,39.64
2018-12-03T00:29:45.175Z,35.63
2018-12-03T00:35:40.171Z,35.86
2018-12-03T00:41:35.169Z,36.5
2018-12-03T00:47:30.154Z,36.12
2018-12-03T00:53:25.185Z,35.77
2018-12-03T00:59:20.177Z,35.04
2018-12-03T01:05:15.184Z,35.73
2018-12-03T01:11:10.213Z,36.96
2018-12-03T01:17:05.177Z,39.65
2018-12-03T01:23:00.183Z,37.19
2018-12-03T01:28:55.171Z,37.33
2018-12-03T01:34:50.207Z,36.67
2018-12-03T01:40:45.196Z,36.96
2018-12-03T01:46:40.212Z,36.93
2018-12-03T01:52:35.234Z,37.07
2018-12-03T01:58:30.188Z,38.57
2018-12-03T02:04:25.200Z,38.48
2018-12-03T02:10:20.205Z,38.8
2018-12-03T02:16:15.223Z,38.2
2018-12-03T02:22:10.214Z,37.62
2018-12-03T02:28:05.220Z,37.7
2018-12-03T02:34:00.222Z,37.27
2018-12-03T02:39:55.222Z,36.85
2018-12-03T02:45:50.230Z,37.31
2018-12-03T02:51:45.224Z,38.65
2018-12-03T02:57:40.243Z,39.44
2018-12-03T03:03:35.280Z,35.98
2018-12-03T03:09:30.273Z,35.96
2018-12-03T03:15:25.244Z,36.52
2018-12-03T03:21:20.333Z,35.56
2018-12-03T03:27:15.249Z,35.8
2018-12-03T03:33:10.251Z,35.65
2018-12-03T03:39:05.271Z,35.38
2018-12-03T03:45:00.294Z,35.33
2018-12-03T03:50:55.252Z,36.62
2018-12-03T03:56:50.287Z,33.43
2018-12-03T04:02:45.314Z,33.53
2018-12-03T04:08:40.256Z,32.92
2018-12-03T04:14:35.280Z,31.85
2018-12-03T04:20:30.304Z,32.63
2018-12-03T04:26:25.328Z,31.89
2018-12-03T04:32:20.322Z,33.09
2018-12-03T04:38:15.306Z,31.4
2018-12-03T04:44:10.286Z,31.91
2018-12-03T04:50:05.294Z,31.8
2018-12-03T04:56:00.292Z,32.54
2018-12-03T05:01:55.363Z,31.6
2018-12-03T05:07:50.343Z,34.77
2018-12-03T05:13:45.314Z,35.72
2018-12-03T05:19:40.352Z,36.21
2018-12-03T05:25:35.364Z,35.43
2018-12-03T05:31:30.336Z,34.95
2018-12-03T05:37:25.313Z,32.47
2018-12-03T05:43:20.332Z,33.74
2018-12-03T05:49:15.378Z,32.87
2018-12-03T05:55:10.360Z,35
2018-12-03T06:01:05.337Z,36.83
2018-12-03T06:07:00.360Z,29.43
2018-12-03T06:12:55.388Z,27.03
2018-12-03T06:18:50.346Z,27.61
2018-12-03T06:24:45.404Z,24.81
2018-12-03T06:30:40.385Z,23.13
2018-12-03T06:36:35.371Z,22.27
2018-12-03T06:42:30.371Z,19.85
2018-12-03T06:48:25.365Z,19.8
2018-12-03T06:54:20.415Z,20.82
2018-12-03T07:00:15.385Z,21.31
2018-12-03T07:06:10.378Z,19.57
2018-12-03T07:12:05.414Z,17.11
2018-12-03T07:18:00.406Z,16.4
2018-12-03T07:23:55.371Z,15.82
2018-12-03T07:29:52.811Z,16.28
2018-12-03T07:35:45.439Z,15.4
2018-12-03T07:41:40.409Z,15.47
2018-12-03T07:47:35.425Z,14.47
2018-12-03T07:53:30.442Z,15.1
2018-12-03T07:59:25.395Z,18.51
2018-12-03T08:05:20.430Z,15.88
2018-12-03T08:11:15.402Z,13.56
2018-12-03T08:17:10.416Z,12.31
2018-12-03T08:23:05.411Z,11.47
2018-12-03T08:29:00.435Z,11.31
2018-12-03T08:34:55.443Z,11.28
2018-12-03T08:40:50.452Z,16.97
2018-12-03T08:46:45.427Z,15.86
2018-12-03T08:52:40.448Z,17.43
2018-12-03T08:58:35.457Z,14.66
2018-12-03T09:04:30.478Z,13.48
2018-12-03T09:10:25.473Z,14.55
2018-12-03T09:16:20.488Z,16.07
2018-12-03T09:22:15.496Z,22.76
2018-12-03T09:28:10.440Z,17.8
2018-12-03T09:34:05.464Z,17.52
2018-12-03T09:40:00.480Z,17.43
2018-12-03T09:45:55.480Z,21.26
2018-12-03T09:51:50.465Z,25.44
2018-12-03T09:57:45.535Z,30.5
2018-12-03T10:03:40.482Z,27.16
2018-12-03T10:09:35.489Z,22.28
2018-12-03T10:15:30.508Z,23.65
2018-12-03T10:21:25.483Z,34.3
2018-12-03T10:27:20.491Z,24.84
2018-12-03T10:33:15.494Z,22.09
2018-12-03T10:39:10.502Z,19.63
2018-12-03T10:45:05.508Z,18.66
2018-12-03T10:51:00.494Z,17.87
2018-12-03T10:56:55.559Z,19.83
2018-12-03T11:02:50.510Z,26.84
2018-12-03T11:08:45.544Z,29.8
2018-12-03T11:14:40.525Z,28.63
2018-12-03T11:20:35.514Z,32.42
2018-12-03T11:26:30.535Z,32.57
2018-12-03T11:32:25.539Z,32.59
2018-12-03T11:38:20.537Z,45.52
2018-12-03T11:44:15.547Z,40.96
2018-12-03T11:50:10.523Z,43.96
2018-12-03T11:56:05.549Z,37.31
2018-12-03T12:02:00.576Z,37.36
2018-12-03T12:07:55.585Z,36.1
2018-12-03T12:13:50.586Z,31.2
2018-12-03T12:19:45.563Z,32.11
2018-12-03T12:25:40.556Z,34.73
2018-12-03T12:31:35.587Z,36.94
2018-12-03T12:37:30.577Z,43.22
2018-12-03T12:43:25.602Z,42.28
2018-12-03T12:49:20.580Z,40.28
2018-12-03T12:55:15.577Z,54.93
2018-12-03T13:01:10.593Z,58.68
2018-12-03T13:07:05.569Z,49.61
2018-12-03T13:13:00.579Z,51.25
2018-12-03T13:18:55.566Z,51.43
2018-12-03T13:24:50.611Z,51.94
2018-12-03T13:30:45.618Z,53.7
2018-12-03T13:36:40.607Z,53.41
2018-12-03T13:42:35.607Z,57.47
2018-12-03T13:48:30.627Z,53.63
2018-12-03T13:54:25.609Z,57.46
2018-12-03T14:00:20.651Z,58.48
2018-12-03T14:06:15.649Z,65.81
2018-12-03T14:12:10.621Z,73.34
2018-12-03T14:18:05.628Z,85.23
2018-12-03T14:24:00.619Z,102.66
2018-12-03T14:29:55.648Z,84.86
2018-12-03T14:35:50.633Z,79.88
2018-12-03T14:41:45.635Z,68.61
2018-12-03T14:47:40.644Z,55.81
2018-12-03T14:53:35.636Z,65.67
2018-12-03T14:59:30.646Z,56.56
2018-12-03T15:05:25.673Z,61.3
2018-12-03T15:11:20.659Z,55
2018-12-03T15:17:15.668Z,54.26
2018-12-03T15:23:10.679Z,54.72
2018-12-03T15:29:05.664Z,54.35
2018-12-03T15:35:00.711Z,55.55
2018-12-03T15:40:55.695Z,56.09
2018-12-03T15:46:50.697Z,88.28
2018-12-03T15:52:45.693Z,63.23
2018-12-03T15:58:40.700Z,52.5
2018-12-03T16:04:35.737Z,58.06
2018-12-03T16:10:30.730Z,64.64
2018-12-03T16:16:25.706Z,67.95
2018-12-03T16:22:20.684Z,67.13
2018-12-03T16:28:15.715Z,69.9
2018-12-03T16:34:10.711Z,62.7
2018-12-03T16:40:05.716Z,68.78
2018-12-03T16:46:00.703Z,69.4
2018-12-03T16:51:55.705Z,79.55
2018-12-03T16:57:50.742Z,82
2018-12-03T17:03:45.720Z,83.97
2018-12-03T17:09:40.735Z,82.14
2018-12-03T17:15:36.610Z,89.94
2018-12-03T17:21:30.759Z,95
2018-12-03T17:27:25.719Z,100.78
2018-12-03T17:33:20.754Z,102.1
2018-12-03T17:39:15.753Z,106.88
2018-12-03T17:45:10.757Z,118.01
2018-12-03T17:51:06.884Z,117.23
2018-12-03T17:57:00.738Z,105.82
2018-12-03T18:02:55.747Z,114.04
2018-12-03T18:08:50.776Z,114.21
2018-12-03T18:14:45.759Z,117.48
2018-12-03T18:20:40.775Z,122.17
2018-12-03T18:26:35.805Z,108.78
2018-12-03T18:32:30.780Z,108.35
2018-12-03T18:38:25.787Z,110.35
2018-12-03T18:44:20.808Z,111.76
2018-12-03T18:50:15.812Z,111.23
2018-12-03T18:56:10.808Z,125.78
2018-12-03T19:02:05.784Z,136.05
2018-12-03T19:08:00.787Z,170.52
2018-12-03T19:13:55.779Z,139.53
2018-12-03T19:19:50.855Z,121.3
2018-12-03T19:25:45.880Z,127.71
2018-12-03T19:31:40.834Z,122.48
2018-12-03T19:37:35.819Z,104.41
2018-12-03T19:43:30.840Z,94.4
2018-12-03T19:49:25.825Z,103.76
2018-12-03T19:55:20.829Z,180.35
2018-12-03T20:01:15.851Z,135.08
2018-12-03T20:07:10.828Z,121.2
2018-12-03T20:13:05.856Z,113.14
2018-12-03T20:19:00.857Z,133.07
2018-12-03T20:24:55.833Z,99.18
2018-12-03T20:30:50.890Z,88.64
2018-12-03T20:36:45.860Z,84.91
2018-12-03T20:42:40.861Z,81.8
2018-12-03T20:48:35.870Z,80.7
2018-12-03T20:54:30.879Z,84.7
2018-12-03T21:00:25.858Z,93.55
2018-12-03T21:06:20.913Z,99.23
2018-12-03T21:12:15.879Z,97.9
2018-12-03T21:18:10.864Z,99.51
2018-12-03T21:24:05.862Z,98.29
2018-12-03T21:30:00.858Z,102.95
2018-12-03T21:35:55.878Z,124.41
2018-12-03T21:41:50.898Z,122.66
2018-12-03T21:47:45.914Z,99.8
2018-12-03T21:53:40.940Z,56.49
2018-12-03T21:59:35.898Z,57.31
2018-12-03T22:05:30.915Z,91.92
2018-12-03T22:11:25.942Z,117.17
2018-12-03T22:17:20.920Z,103.45
2018-12-03T22:23:15.910Z,92.72
2018-12-03T22:29:10.937Z,73.71
2018-12-03T22:35:05.909Z,56.38
2018-12-03T22:41:00.927Z,56.74
2018-12-03T22:46:55.944Z,53.48
2018-12-03T22:52:50.959Z,52.19
2018-12-03T22:58:45.975Z,45.87
2018-12-03T23:04:40.936Z,67.56
2018-12-03T23:10:35.975Z,93.22
2018-12-03T23:16:31.000Z,99.69
2018-12-03T23:22:25.981Z,95.53
2018-12-03T23:28:20.974Z,94.14
2018-12-03T23:34:15.957Z,93.97
2018-12-03T23:40:10.966Z,95.32
2018-12-03T23:46:06.001Z,82.82
2018-12-03T23:52:00.963Z,80.96
2018-12-03T23:57:55.977Z,80.81
